Time;durP1;ratioP1;P1;durP2;ratioP2;P2;SDS_P1;SDS_P2;PMS_P1;PMS_P2;Temp;Humidity;BMP_temperature;BMP_pressure;BME280_temperature;BME280_humidity;BME280_pressure;Samples;Min_cycle;Max_cycle;Signal;HPM_P1;HPM_P2
2022/03/14 00:02:13;;;;;;;65.43;42.67;;;-0.20;99.90;-1.40;101668;;;;557701;253;24109;-80
2022/03/14 00:04:40;;;;;;;69.97;43.93;;;-0.20;99.90;-1.50;101658;;;;557973;252;24129;-79
2022/03/14 00:07:10;;;;;;;70.07;44.77;;;-0.30;99.90;-1.50;101663;;;;557495;253;24129;-78
2022/03/14 00:09:37;;;;;;;72.00;44.80;;;-0.30;99.90;-1.50;101659;;;;558768;253;24127;-78
2022/03/14 00:12:08;;;;;;;68.37;44.23;;;-0.40;99.90;-1.50;101655;;;;558960;253;24140;-78
2022/03/14 00:14:35;;;;;;;70.40;44.93;;;-0.40;99.90;-1.50;101663;;;;558430;253;24124;-79
2022/03/14 00:17:10;;;;;;;71.07;45.53;;;-0.40;99.90;-1.50;101664;;;;558388;253;24097;-79
2022/03/14 00:19:32;;;;;;;74.83;46.67;;;-0.40;99.90;-1.50;101657;;;;558112;253;24139;-79
2022/03/14 00:21:59;;;;;;;74.07;46.73;;;-0.40;99.90;-1.50;101664;;;;557735;253;24120;-79
2022/03/14 00:24:28;;;;;;;77.53;46.80;;;-0.30;99.90;-1.40;101667;;;;563546;250;24091;-79
2022/03/14 00:26:55;;;;;;;70.53;45.10;;;-0.30;99.90;-1.40;101670;;;;553531;255;24238;-80
2022/03/14 00:29:24;;;;;;;71.77;45.90;;;-0.30;99.90;-1.50;101668;;;;567605;249;24129;-80
2022/03/14 00:31:55;;;;;;;76.00;46.70;;;-0.30;99.90;-1.40;101677;;;;569050;253;24074;-80
2022/03/14 00:34:22;;;;;;;74.17;46.67;;;-0.30;99.90;-1.40;101667;;;;558992;243;24114;-80
2022/03/14 00:36:51;;;;;;;75.77;46.83;;;-0.30;99.90;-1.30;101678;;;;558158;253;24110;-80
2022/03/14 00:39:22;;;;;;;73.27;45.87;;;-0.30;99.90;-1.30;101684;;;;557340;253;24125;-79
2022/03/14 00:41:50;;;;;;;72.93;46.67;;;-0.20;99.90;-1.30;101672;;;;557594;250;24110;-79
2022/03/14 00:44:16;;;;;;;71.30;43.83;;;-0.20;99.90;-1.30;101677;;;;557207;253;24219;-79
2022/03/14 00:46:43;;;;;;;71.03;43.30;;;-0.20;99.90;-1.20;101675;;;;557020;253;24114;-79
2022/03/14 00:49:14;;;;;;;64.70;43.60;;;-0.10;99.90;-1.20;101674;;;;557205;253;24127;-79
2022/03/14 00:51:44;;;;;;;69.00;42.10;;;-0.10;99.90;-1.30;101671;;;;557802;253;24139;-79
2022/03/14 00:54:12;;;;;;;59.60;39.10;;;-0.20;99.90;-1.30;101684;;;;562975;251;25473;-79
2022/03/14 00:56:40;;;;;;;60.40;38.43;;;-0.20;99.90;-1.30;101684;;;;552615;255;24136;-80
2022/03/14 00:59:08;;;;;;;58.87;38.50;;;-0.20;99.90;-1.30;101683;;;;571452;250;24112;-80
2022/03/14 01:01:40;;;;;;;58.73;38.03;;;-0.20;99.90;-1.30;101687;;;;552729;255;24130;-79
2022/03/14 01:04:05;;;;;;;59.63;38.37;;;-0.20;99.90;-1.30;101678;;;;571217;251;24101;-79
2022/03/14 01:06:34;;;;;;;53.90;37.50;;;-0.30;99.90;-1.40;101682;;;;552795;255;24121;-80
2022/03/14 01:09:02;;;;;;;61.83;37.03;;;-0.30;99.90;-1.40;101681;;;;566378;249;24127;-79
2022/03/14 01:11:31;;;;;;;62.13;38.10;;;-0.30;99.90;-1.40;101684;;;;558051;253;24132;-79
2022/03/14 01:14:01;;;;;;;57.27;36.90;;;-0.30;99.90;-1.40;101680;;;;558119;253;24138;-80
2022/03/14 01:16:28;;;;;;;59.03;37.27;;;-0.40;99.90;-1.50;101677;;;;558267;253;24131;-79
2022/03/14 01:18:59;;;;;;;54.77;35.30;;;-0.30;99.90;-1.50;101675;;;;562976;251;24168;-79
2022/03/14 01:21:26;;;;;;;56.67;31.55;;;-0.40;99.90;-1.50;101675;;;;557692;254;35625;-80
2022/03/14 01:23:57;;;;;;;45.67;21.10;;;-0.40;99.90;-1.50;101687;;;;562420;251;24153;-79
2022/03/14 01:26:23;;;;;;;46.70;29.47;;;-0.40;99.90;-1.50;101676;;;;566118;253;24192;-80
2022/03/14 01:28:51;;;;;;;47.13;31.57;;;-0.40;99.90;-1.50;101681;;;;561798;254;24149;-80
2022/03/14 01:31:20;;;;;;;51.33;32.60;;;-0.40;99.90;-1.60;101679;;;;562567;246;24135;-80
2022/03/14 01:33:49;;;;;;;52.03;32.40;;;-0.50;99.90;-1.60;101683;;;;553540;255;24118;-80
2022/03/14 01:36:19;;;;;;;49.33;32.37;;;-0.50;99.90;-1.70;101687;;;;553466;255;24168;-79
2022/03/14 01:38:49;;;;;;;47.47;32.50;;;-0.50;99.90;-1.70;101690;;;;553390;255;24204;-79
2022/03/14 01:41:22;;;;;;;49.07;32.90;;;-0.70;99.90;-1.80;101683;;;;558235;253;24138;-79
2022/03/14 01:43:49;;;;;;;54.23;32.77;;;-0.70;99.90;-1.80;101682;;;;558097;253;24162;-80
2022/03/14 01:46:18;;;;;;;53.33;34.77;;;-0.70;99.90;-1.90;101686;;;;557821;253;25147;-79
2022/03/14 01:48:42;;;;;;;51.47;35.03;;;-0.70;99.90;-1.90;101690;;;;557682;253;24148;-80
2022/03/14 01:51:10;;;;;;;52.80;32.80;;;-0.80;99.90;-1.90;101690;;;;557834;253;24119;-80
2022/03/14 01:53:38;;;;;;;53.50;33.43;;;-0.80;99.90;-2.00;101694;;;;557410;253;24138;-79
2022/03/14 01:56:12;;;;;;;53.57;34.23;;;-0.90;99.90;-2.10;101695;;;;557509;253;24119;-79
2022/03/14 01:58:38;;;;;;;54.57;36.63;;;-0.90;99.90;-2.10;101688;;;;557460;253;24118;-78
2022/03/14 02:01:06;;;;;;;54.83;36.17;;;-1.00;99.90;-2.10;101695;;;;563263;251;24106;-79
2022/03/14 02:03:34;;;;;;;53.40;34.40;;;-1.00;99.90;-2.20;101702;;;;553186;255;24137;-79
2022/03/14 02:06:02;;;;;;;52.33;34.83;;;-1.00;99.90;-2.20;101695;;;;553617;255;24132;-79
2022/03/14 02:08:31;;;;;;;61.60;36.10;;;-1.10;99.90;-2.20;101702;;;;553547;255;24162;-79
2022/03/14 02:11:01;;;;;;;54.17;35.33;;;-1.10;99.90;-2.20;101706;;;;553511;255;24265;-81
2022/03/14 02:13:33;;;;;;;59.20;35.53;;;-1.20;99.90;-2.30;101698;;;;553480;255;25178;-81
2022/03/14 02:15:57;;;;;;;52.50;33.63;;;-1.20;99.90;-2.30;101699;;;;563930;251;24028;-78
2022/03/14 02:18:28;;;;;;;56.37;35.63;;;-1.20;99.90;-2.30;101699;;;;561721;251;24177;-78
2022/03/14 02:20:55;;;;;;;60.20;34.10;;;-1.20;99.90;-2.40;101693;;;;554191;255;24096;-80
2022/03/14 02:23:21;;;;;;;56.87;36.40;;;-1.20;99.90;-2.40;101700;;;;561816;255;24104;-79
2022/03/14 02:25:55;;;;;;;51.40;34.33;;;-1.30;99.90;-2.40;101704;;;;559021;253;24150;-79
2022/03/14 02:28:23;;;;;;;59.50;34.90;;;-1.30;99.90;-2.40;101707;;;;558748;253;24102;-78
2022/03/14 02:30:48;;;;;;;60.13;34.93;;;-1.30;99.90;-2.40;101713;;;;571473;251;24151;-79
2022/03/14 02:33:19;;;;;;;52.67;34.37;;;-1.30;99.90;-2.40;101708;;;;554168;255;24121;-79
2022/03/14 02:35:49;;;;;;;51.03;32.67;;;-1.30;99.90;-2.40;101707;;;;554137;255;24147;-79
2022/03/14 02:38:20;;;;;;;47.37;31.00;;;-1.30;99.90;-2.40;101711;;;;552857;255;24147;-79
2022/03/14 02:40:50;;;;;;;50.07;32.37;;;-1.30;99.90;-2.40;101719;;;;553024;255;24141;-80
2022/03/14 02:43:18;;;;;;;49.00;31.67;;;-1.30;99.90;-2.40;101713;;;;552725;255;25241;-79
2022/03/14 02:45:46;;;;;;;54.57;31.70;;;-1.30;99.90;-2.40;101707;;;;556381;253;24114;-79
2022/03/14 02:48:13;;;;;;;46.40;29.13;;;-1.30;99.90;-2.40;101704;;;;557807;253;24129;-80
2022/03/14 02:50:43;;;;;;;40.70;28.97;;;-1.30;99.90;-2.40;101697;;;;557654;253;24122;-80
2022/03/14 02:53:08;;;;;;;43.50;27.17;;;-1.30;99.90;-2.40;101699;;;;556067;253;24169;-79
2022/03/14 02:55:35;;;;;;;40.90;27.57;;;-1.30;99.90;-2.40;101698;;;;557325;253;25157;-79
2022/03/14 02:58:03;;;;;;;44.03;27.80;;;-1.30;99.90;-2.50;101710;;;;556154;253;24210;-80
2022/03/14 03:00:31;;;;;;;43.17;24.50;;;-1.30;99.90;-2.50;101706;;;;557028;253;24130;-79
2022/03/14 03:03:00;;;;;;;37.00;26.03;;;-1.40;99.90;-2.50;101714;;;;557409;251;24147;-79
2022/03/14 03:05:31;;;;;;;41.47;26.27;;;-1.40;99.90;-2.50;101705;;;;557225;248;24103;-79
2022/03/14 03:08:00;;;;;;;42.70;26.30;;;-1.40;99.90;-2.50;101714;;;;557444;250;24112;-79
2022/03/14 03:10:26;;;;;;;35.13;24.70;;;-1.50;99.90;-2.60;101716;;;;562288;251;24137;-79
2022/03/14 03:12:58;;;;;;;36.03;26.23;;;-1.50;99.90;-2.60;101708;;;;552265;255;24172;-79
2022/03/14 03:15:27;;;;;;;37.37;26.87;;;-1.50;99.90;-2.60;101718;;;;557029;253;24130;-79
2022/03/14 03:17:53;;;;;;;40.33;27.90;;;-1.50;99.90;-2.70;101725;;;;557468;253;24142;-79
2022/03/14 03:20:26;;;;;;;38.83;26.83;;;-1.50;99.90;-2.70;101720;;;;557926;253;24132;-79
2022/03/14 03:22:57;;;;;;;40.00;27.70;;;-1.60;99.90;-2.70;101722;;;;558241;253;24116;-79
2022/03/14 03:25:26;;;;;;;40.80;26.57;;;-1.60;99.90;-2.70;101719;;;;571428;251;24165;-78
2022/03/14 03:27:51;;;;;;;41.03;26.63;;;-1.60;99.90;-2.80;101719;;;;553142;255;24157;-79
2022/03/14 03:30:20;;;;;;;41.87;27.10;;;-1.60;99.90;-2.80;101728;;;;568320;253;24098;-78
2022/03/14 03:32:48;;;;;;;45.20;28.40;;;-1.70;99.90;-2.80;101733;;;;557940;253;24133;-77
2022/03/14 03:35:20;;;;;;;44.03;27.37;;;-1.70;99.90;-2.80;101730;;;;557879;253;24186;-77
2022/03/14 03:37:47;;;;;;;44.53;28.27;;;-1.70;99.90;-2.90;101734;;;;566239;253;24129;-78
2022/03/14 03:40:15;;;;;;;43.00;29.13;;;-1.70;99.90;-2.90;101743;;;;556085;253;24117;-78
2022/03/14 03:42:40;;;;;;;43.57;28.33;;;-1.70;99.90;-2.90;101739;;;;558158;251;24156;-79
2022/03/14 03:45:09;;;;;;;42.60;28.87;;;-1.80;99.90;-3.00;101747;;;;559551;253;24114;-80
2022/03/14 03:47:36;;;;;;;43.40;30.13;;;-1.80;99.90;-2.90;101746;;;;559331;253;24132;-79
2022/03/14 03:50:09;;;;;;;42.27;27.67;;;-1.80;99.90;-3.00;101756;;;;559282;253;24097;-80
2022/03/14 03:52:33;;;;;;;45.03;29.73;;;-1.80;99.90;-3.00;101749;;;;564075;246;24159;-80
2022/03/14 03:55:03;;;;;;;43.27;29.00;;;-1.80;99.90;-3.00;101732;;;;554114;255;24131;-79
2022/03/14 03:57:31;;;;;;;43.67;28.40;;;-1.90;99.90;-3.00;101741;;;;559363;253;25140;-80
2022/03/14 03:59:58;;;;;;;49.17;30.53;;;-1.90;99.90;-3.10;101740;;;;558851;253;24112;-81
2022/03/14 04:02:27;;;;;;;42.20;28.57;;;-1.90;99.90;-3.10;101744;;;;558729;253;24102;-80
2022/03/14 04:04:59;;;;;;;41.17;28.13;;;-2.00;99.90;-3.10;101738;;;;558245;253;24116;-80
2022/03/14 04:07:26;;;;;;;43.20;29.70;;;-2.00;99.90;-3.10;101740;;;;557900;253;24120;-80
2022/03/14 04:09:59;;;;;;;49.27;31.47;;;-2.00;99.90;-3.20;101746;;;;563766;251;24150;-79
2022/03/14 04:12:30;;;;;;;51.27;33.00;;;-2.00;99.90;-3.20;101739;;;;553070;255;24157;-79
2022/03/14 04:15:04;;;;;;;48.70;29.97;;;-2.10;99.90;-3.30;101743;;;;558396;253;24109;-79
2022/03/14 04:17:27;;;;;;;41.30;27.27;;;-2.10;99.90;-3.30;101749;;;;567875;252;24132;-79
2022/03/14 04:19:54;;;;;;;43.30;27.67;;;-2.10;99.90;-3.40;101744;;;;557520;253;24263;-79
2022/03/14 04:22:19;;;;;;;42.23;29.37;;;-2.20;99.90;-3.40;101743;;;;565711;253;24127;-79
2022/03/14 04:24:47;;;;;;;40.77;29.83;;;-2.20;99.90;-3.50;101753;;;;555791;253;24103;-80
2022/03/14 04:27:15;;;;;;;41.77;29.33;;;-2.30;99.90;-3.50;101754;;;;557359;253;24128;-80
2022/03/14 04:29:43;;;;;;;46.53;30.63;;;-2.40;99.90;-3.60;101747;;;;557366;253;24124;-80
2022/03/14 04:32:11;;;;;;;49.50;31.33;;;-2.40;99.90;-3.70;101741;;;;557678;253;24105;-80
2022/03/14 04:34:39;;;;;;;46.57;29.07;;;-2.50;99.90;-3.80;101745;;;;557281;253;24106;-79
2022/03/14 04:37:07;;;;;;;47.70;29.60;;;-2.60;99.90;-3.90;101749;;;;557731;253;24159;-80
2022/03/14 04:39:36;;;;;;;45.67;30.43;;;-2.70;99.90;-4.00;101744;;;;558054;253;24175;-80
2022/03/14 04:42:04;;;;;;;43.90;29.97;;;-2.70;99.90;-4.00;101748;;;;564011;251;24107;-80
2022/03/14 04:44:32;;;;;;;40.97;27.93;;;-2.80;99.90;-4.10;101745;;;;553682;251;24143;-80
2022/03/14 04:47:00;;;;;;;48.30;30.40;;;-2.80;99.90;-4.10;101756;;;;553865;255;24143;-81
2022/03/14 04:49:28;;;;;;;42.47;28.10;;;-2.90;99.90;-4.10;101756;;;;553785;255;24218;-80
2022/03/14 04:51:55;;;;;;;42.13;29.57;;;-2.90;99.90;-4.10;101755;;;;553520;255;24085;-82
2022/03/14 04:54:23;;;;;;;42.63;29.60;;;-2.90;99.90;-4.20;101751;;;;553695;253;24097;-81
2022/03/14 04:56:55;;;;;;;45.60;28.73;;;-2.90;99.90;-4.20;101757;;;;571127;249;24134;-82
2022/03/14 04:59:19;;;;;;;42.57;29.60;;;-2.90;99.90;-4.30;101763;;;;586881;245;24102;-83
2022/03/14 05:01:47;;;;;;;44.83;29.33;;;-3.00;99.90;-4.30;101753;;;;577464;245;25152;-83
2022/03/14 05:04:15;;;;;;;44.73;29.37;;;-3.10;99.90;-4.30;101760;;;;563982;250;24136;-81
2022/03/14 05:06:44;;;;;;;44.70;28.60;;;-3.10;99.90;-4.40;101752;;;;552984;255;24155;-80
2022/03/14 05:09:15;;;;;;;43.57;28.33;;;-3.10;99.90;-4.40;101745;;;;553014;255;24201;-81
2022/03/14 05:11:40;;;;;;;40.90;28.37;;;-3.10;99.90;-4.30;101763;;;;552863;255;24148;-80
2022/03/14 05:14:09;;;;;;;44.13;30.43;;;-3.10;99.90;-4.30;101753;;;;553102;255;24162;-80
2022/03/14 05:16:39;;;;;;;44.33;28.07;;;-3.10;99.90;-4.20;101746;;;;552935;255;24156;-81
2022/03/14 05:19:03;;;;;;;49.67;31.00;;;-3.00;99.90;-4.10;101744;;;;560388;255;24194;-80
2022/03/14 05:21:33;;;;;;;52.20;29.37;;;-2.90;99.90;-4.00;101749;;;;552883;255;24164;-80
2022/03/14 05:23:58;;;;;;;51.53;32.10;;;-2.80;99.90;-4.00;101757;;;;557514;253;24139;-82
2022/03/14 05:26:26;;;;;;;47.17;28.73;;;-2.80;99.90;-3.90;101751;;;;558285;253;24099;-80
2022/03/14 05:28:54;;;;;;;47.73;30.77;;;-2.70;99.90;-3.80;101765;;;;558301;253;24152;-80
2022/03/14 05:31:22;;;;;;;44.57;28.70;;;-2.60;99.90;-3.80;101763;;;;557762;253;24144;-80
2022/03/14 05:33:50;;;;;;;45.37;28.30;;;-2.60;99.90;-3.70;101762;;;;557437;253;24158;-80
2022/03/14 05:36:18;;;;;;;43.40;26.80;;;-2.50;99.90;-3.70;101766;;;;557195;253;24114;-80
2022/03/14 05:38:46;;;;;;;45.37;26.03;;;-2.50;99.90;-3.60;101756;;;;557260;253;24120;-80
2022/03/14 05:41:14;;;;;;;49.43;28.93;;;-2.40;99.90;-3.60;101765;;;;557277;253;24163;-83
2022/03/14 05:43:45;;;;;;;41.27;26.70;;;-2.40;99.90;-3.50;101770;;;;556129;253;24163;-83
2022/03/14 05:46:13;;;;;;;37.03;25.27;;;-2.30;99.90;-3.40;101771;;;;557608;253;24120;-84
2022/03/14 05:48:38;;;;;;;39.30;25.90;;;-2.30;99.90;-3.40;101769;;;;557028;253;24254;-84
2022/03/14 05:51:07;;;;;;;41.77;25.77;;;-2.20;99.90;-3.30;101781;;;;557055;253;24123;-81
2022/03/14 05:53:34;;;;;;;46.00;28.17;;;-2.10;99.90;-3.20;101771;;;;560552;250;35409;-83
2022/03/14 05:56:01;;;;;;;39.23;17.37;;;-2.00;99.90;-3.10;101771;;;;565477;250;24133;-79
2022/03/14 05:58:33;;;;;;;37.53;25.10;;;-1.90;99.90;-3.00;101783;;;;565428;251;24124;-79
2022/03/14 06:00:57;;;;;;;37.53;26.57;;;-1.90;99.90;-2.90;101786;;;;562125;251;24139;-79
2022/03/14 06:03:25;;;;;;;40.10;26.23;;;-1.80;99.90;-2.80;101781;;;;552294;255;24151;-82
2022/03/14 06:05:54;;;;;;;42.07;28.60;;;-1.50;99.90;-2.70;101781;;;;552391;253;24169;-81
2022/03/14 06:08:22;;;;;;;48.30;28.03;;;-1.30;99.90;-2.30;101784;;;;567349;250;24099;-80
2022/03/14 06:10:53;;;;;;;43.67;27.73;;;-0.20;99.90;-0.90;101787;;;;553249;255;24146;-80
2022/03/14 06:13:20;;;;;;;33.13;20.83;;;-0.20;99.90;1.40;101807;;;;552950;255;24135;-82
2022/03/14 06:15:47;;;;;;;24.70;13.37;;;1.60;99.90;3.10;101815;;;;552694;255;24125;-80
2022/03/14 06:18:15;;;;;;;24.87;12.27;;;3.30;99.90;4.70;101830;;;;564096;250;24104;-80
2022/03/14 06:20:43;;;;;;;25.23;12.00;;;5.00;99.90;6.00;101834;;;;556929;253;24163;-80
2022/03/14 06:23:11;;;;;;;17.90;12.03;;;6.40;99.90;7.20;101835;;;;557600;253;24116;-79
2022/03/14 06:25:39;;;;;;;21.03;12.17;;;7.60;99.90;8.10;101838;;;;557586;253;24109;-79
2022/03/14 06:28:07;;;;;;;19.53;11.83;;;8.60;99.60;9.00;101844;;;;557363;253;24125;-79
2022/03/14 06:30:35;;;;;;;18.07;11.67;;;10.30;89.70;9.70;101843;;;;557321;253;24211;-79
2022/03/14 06:33:05;;;;;;;21.77;12.30;;;11.00;83.00;10.30;101841;;;;553644;252;24183;-79
2022/03/14 06:35:34;;;;;;;19.87;11.43;;;11.50;77.40;10.80;101846;;;;557401;253;24223;-83
2022/03/14 06:38:03;;;;;;;22.83;13.30;;;11.80;74.10;11.10;101845;;;;557298;253;24113;-79
2022/03/14 06:40:30;;;;;;;21.30;13.30;;;12.30;71.60;11.70;101849;;;;566366;249;24115;-79
2022/03/14 06:42:59;;;;;;;23.87;14.17;;;12.70;68.20;11.80;101838;;;;567317;248;24193;-81
2022/03/14 06:45:27;;;;;;;27.30;16.67;;;12.70;68.10;12.10;101845;;;;562246;251;24131;-79
2022/03/14 06:47:56;;;;;;;29.30;15.57;;;13.20;64.20;12.40;101845;;;;552131;255;24173;-80
2022/03/14 06:50:24;;;;;;;22.97;15.37;;;13.50;63.50;12.70;101845;;;;552027;255;24188;-80
2022/03/14 06:52:53;;;;;;;23.70;13.93;;;13.50;63.50;13.50;101849;;;;551952;255;24133;-79
2022/03/14 06:55:21;;;;;;;20.53;13.40;;;14.10;61.40;13.40;101842;;;;552110;255;24167;-78
2022/03/14 06:57:50;;;;;;;30.77;14.90;;;14.40;59.30;13.30;101840;;;;551978;255;24143;-79
2022/03/14 07:00:18;;;;;;;24.13;13.67;;;14.30;58.70;13.30;101833;;;;552192;255;24336;-80
2022/03/14 07:02:49;;;;;;;22.47;13.50;;;14.20;58.40;13.20;101839;;;;556773;253;24107;-79
2022/03/14 07:05:23;;;;;;;21.63;12.97;;;14.50;57.90;13.60;101844;;;;565029;253;24143;-79
2022/03/14 07:07:52;;;;;;;26.03;14.30;;;14.50;57.90;13.70;101845;;;;557642;250;24146;-79
2022/03/14 07:10:18;;;;;;;28.73;15.13;;;15.20;57.40;14.80;101856;;;;561816;251;24163;-79
2022/03/14 07:12:50;;;;;;;30.97;15.30;;;16.30;55.00;16.00;101853;;;;565402;252;24170;-79
2022/03/14 07:15:16;;;;;;;27.67;14.83;;;16.20;54.90;16.80;101860;;;;556968;253;24133;-79
2022/03/14 07:17:47;;;;;;;30.50;17.43;;;17.80;51.50;17.20;101859;;;;555868;251;24134;-79
2022/03/14 07:20:14;;;;;;;29.33;18.23;;;17.80;51.50;17.60;101863;;;;553296;253;35406;-79
2022/03/14 07:22:49;;;;;;;28.60;16.73;;;18.20;50.20;17.30;101865;;;;558095;253;24150;-78
2022/03/14 07:25:23;;;;;;;28.03;16.93;;;18.30;49.00;16.70;101861;;;;557844;253;24111;-79
2022/03/14 07:27:53;;;;;;;34.07;16.10;;;17.80;49.30;16.10;101857;;;;558197;250;24118;-80
2022/03/14 07:30:23;;;;;;;25.13;15.67;;;17.40;49.50;16.20;101856;;;;556494;253;23132;-79
2022/03/14 07:32:48;;;;;;;26.27;15.20;;;17.10;50.50;16.50;101855;;;;562894;250;24115;-78
2022/03/14 07:35:17;;;;;;;23.43;16.07;;;17.70;49.30;17.20;101870;;;;558008;253;24095;-78
2022/03/14 07:37:49;;;;;;;23.67;16.67;;;17.70;48.80;17.00;101864;;;;556909;253;24146;-78
2022/03/14 07:40:18;;;;;;;22.77;16.33;;;18.00;48.80;17.20;101879;;;;565978;251;24104;-78
2022/03/14 07:42:46;;;;;;;21.07;15.30;;;17.80;48.10;16.70;101879;;;;557504;253;24105;-78
2022/03/14 07:45:15;;;;;;;27.70;15.80;;;17.80;48.10;16.90;101881;;;;557826;253;24196;-80
2022/03/14 07:47:46;;;;;;;29.43;17.50;;;17.70;48.70;17.20;101890;;;;557401;253;24110;-78
2022/03/14 07:50:14;;;;;;;29.07;17.23;;;17.90;48.30;17.20;101881;;;;557640;253;24129;-77
2022/03/14 07:52:41;;;;;;;33.37;17.97;;;17.90;48.00;17.70;101874;;;;558152;253;24117;-82
2022/03/14 07:55:12;;;;;;;28.67;18.43;;;18.30;48.30;18.80;101872;;;;557694;253;24122;-79
2022/03/14 07:57:37;;;;;;;26.93;17.20;;;19.30;46.80;19.80;101864;;;;565533;253;24106;-79
2022/03/14 08:00:09;;;;;;;21.23;17.70;;;20.20;45.80;20.80;101874;;;;558029;253;24138;-80
2022/03/14 08:02:40;;;;;;;25.80;17.47;;;22.40;42.90;22.00;101872;;;;565823;253;24133;-81
2022/03/14 08:05:08;;;;;;;20.87;16.73;;;22.30;42.80;22.70;101875;;;;558164;253;23159;-79
2022/03/14 08:07:39;;;;;;;23.83;18.10;;;23.30;40.90;22.40;101885;;;;558541;253;24137;-79
2022/03/14 08:10:07;;;;;;;20.37;16.27;;;23.30;39.90;22.40;101887;;;;557993;253;24140;-80
2022/03/14 08:12:33;;;;;;;24.10;17.00;;;23.20;39.90;22.90;101884;;;;565221;253;24139;-79
2022/03/14 08:15:00;;;;;;;21.83;16.07;;;23.60;39.90;23.30;101885;;;;561735;251;23120;-79
2022/03/14 08:17:29;;;;;;;24.57;16.77;;;24.20;39.00;23.90;101883;;;;552031;255;24141;-80
2022/03/14 08:19:56;;;;;;;23.53;17.87;;;24.70;39.20;24.60;101881;;;;552521;255;23194;-79
2022/03/14 08:22:24;;;;;;;20.63;16.13;;;25.40;37.60;25.00;101878;;;;565885;249;24115;-79
2022/03/14 08:24:52;;;;;;;21.13;16.03;;;26.00;36.60;25.30;101877;;;;552447;255;24122;-81
2022/03/14 08:27:20;;;;;;;20.57;17.97;;;26.40;36.40;25.60;101886;;;;552526;255;23150;-81
2022/03/14 08:29:49;;;;;;;24.00;17.67;;;26.60;35.80;25.80;101880;;;;553072;255;23160;-80
2022/03/14 08:32:21;;;;;;;19.70;16.50;;;26.90;35.40;26.00;101875;;;;553942;255;23210;-78
2022/03/14 08:34:48;;;;;;;23.23;17.43;;;27.10;35.10;25.90;101879;;;;566909;253;23119;-80
2022/03/14 08:37:13;;;;;;;26.27;16.83;;;27.10;34.70;25.00;101877;;;;556664;251;23191;-79
2022/03/14 08:39:41;;;;;;;23.10;17.47;;;26.70;34.90;24.70;101880;;;;558219;253;23213;-81
2022/03/14 08:42:09;;;;;;;20.63;15.77;;;26.40;35.00;24.30;101874;;;;563961;250;24092;-81
2022/03/14 08:44:36;;;;;;;21.20;17.37;;;25.90;35.40;24.10;101863;;;;553927;255;23186;-78
2022/03/14 08:47:08;;;;;;;21.77;17.30;;;25.70;35.80;24.20;101872;;;;553961;255;23223;-79
2022/03/14 08:49:35;;;;;;;22.77;16.93;;;25.60;35.60;23.20;101875;;;;566245;248;23179;-79
2022/03/14 08:52:00;;;;;;;23.10;17.63;;;25.00;35.90;23.00;101875;;;;555721;253;24132;-79
2022/03/14 08:54:28;;;;;;;21.33;15.47;;;24.70;36.40;22.60;101864;;;;557893;253;24134;-79
2022/03/14 08:56:56;;;;;;;23.53;16.90;;;24.20;36.80;22.10;101870;;;;557932;253;24124;-81
2022/03/14 08:59:24;;;;;;;20.43;16.10;;;23.90;37.20;22.30;101880;;;;557885;253;24099;-79
2022/03/14 09:01:52;;;;;;;19.83;17.73;;;23.70;37.50;21.70;101863;;;;558034;253;24113;-80
2022/03/14 09:04:20;;;;;;;18.63;16.63;;;23.40;37.90;21.40;101874;;;;558128;253;24153;-81
2022/03/14 09:06:48;;;;;;;19.33;16.47;;;23.10;38.30;21.20;101870;;;;557780;253;24098;-80
2022/03/14 09:09:16;;;;;;;19.30;16.87;;;22.90;38.30;21.30;101862;;;;557407;253;24116;-80
2022/03/14 09:11:45;;;;;;;22.17;17.50;;;22.60;39.50;20.70;101862;;;;557067;253;24208;-80
2022/03/14 09:14:13;;;;;;;19.23;17.13;;;22.50;39.70;21.00;101872;;;;557695;253;23191;-78
2022/03/14 09:16:41;;;;;;;21.97;15.97;;;22.50;39.40;20.80;101863;;;;557208;253;24102;-79
2022/03/14 09:19:09;;;;;;;20.53;16.37;;;22.40;40.00;20.80;101870;;;;557847;253;24175;-79
2022/03/14 09:21:37;;;;;;;21.97;17.07;;;22.40;39.30;20.40;101870;;;;557696;253;24143;-80
2022/03/14 09:24:05;;;;;;;22.47;17.23;;;22.20;39.70;20.80;101861;;;;558232;253;24198;-81
2022/03/14 09:26:35;;;;;;;22.43;16.10;;;22.30;39.60;20.10;101862;;;;563613;251;24106;-80
2022/03/14 09:29:07;;;;;;;22.57;16.93;;;22.20;39.90;20.60;101863;;;;554256;255;23123;-80
2022/03/14 09:31:35;;;;;;;18.40;16.13;;;22.10;39.80;20.40;101861;;;;553888;255;24230;-80
2022/03/14 09:34:00;;;;;;;21.47;16.23;;;22.10;40.00;21.10;101870;;;;558126;253;24110;-80
2022/03/14 09:36:28;;;;;;;19.57;15.40;;;22.40;40.10;20.60;101858;;;;557623;253;24156;-79
2022/03/14 09:38:56;;;;;;;20.67;16.60;;;22.30;39.30;19.30;101869;;;;557965;253;24156;-80
2022/03/14 09:41:24;;;;;;;26.40;16.87;;;21.50;40.10;17.20;101857;;;;558674;252;23146;-80
2022/03/14 09:43:54;;;;;;;22.50;16.73;;;19.80;42.30;15.90;101852;;;;558748;253;24266;-80
2022/03/14 09:46:22;;;;;;;23.90;14.63;;;18.30;44.50;14.90;101856;;;;558905;253;24122;-80
2022/03/14 09:48:56;;;;;;;23.07;15.87;;;17.00;46.50;14.70;101850;;;;558742;253;24142;-81
2022/03/14 09:51:20;;;;;;;27.63;15.90;;;16.10;48.80;14.50;101852;;;;558311;253;24136;-80
2022/03/14 09:53:49;;;;;;;20.40;14.50;;;16.10;49.20;14.50;101847;;;;558442;253;24156;-80
2022/03/14 09:56:20;;;;;;;25.70;15.60;;;16.00;49.10;14.70;101853;;;;558797;253;24114;-80
2022/03/14 09:58:49;;;;;;;21.47;15.17;;;16.20;49.10;14.70;101831;;;;564097;250;24180;-81
2022/03/14 10:01:14;;;;;;;21.80;16.23;;;16.20;48.80;14.60;101837;;;;552843;255;24131;-81
2022/03/14 10:03:41;;;;;;;20.47;15.43;;;16.20;49.20;14.80;101829;;;;552944;255;24163;-80
2022/03/14 10:06:10;;;;;;;34.77;16.03;;;17.00;48.60;15.70;101836;;;;553098;255;24146;-81
2022/03/14 10:08:39;;;;;;;22.93;15.93;;;17.90;47.20;16.40;101832;;;;553288;255;24170;-80
2022/03/14 10:11:11;;;;;;;22.13;17.07;;;18.20;46.30;16.60;101832;;;;566662;251;24110;-80
2022/03/14 10:13:39;;;;;;;22.70;16.33;;;18.10;46.30;16.70;101835;;;;558192;253;24110;-80
2022/03/14 10:16:07;;;;;;;26.77;17.33;;;18.40;45.70;16.00;101828;;;;556624;253;24124;-80
2022/03/14 10:18:36;;;;;;;22.00;16.57;;;18.00;46.60;16.20;101827;;;;562812;251;24108;-80
2022/03/14 10:21:05;;;;;;;30.30;17.57;;;18.00;46.60;16.80;101831;;;;556651;253;24159;-80
2022/03/14 10:23:41;;;;;;;29.77;17.97;;;18.40;46.20;16.60;101833;;;;556339;253;24128;-79
2022/03/14 10:26:16;;;;;;;27.80;16.90;;;18.50;45.20;16.50;101826;;;;557897;253;24163;-80
2022/03/14 10:28:40;;;;;;;19.13;14.90;;;18.40;45.90;16.10;101824;;;;565242;249;24130;-79
2022/03/14 10:31:08;;;;;;;33.97;16.43;;;18.10;45.70;14.90;101829;;;;556915;253;24165;-79
2022/03/14 10:33:37;;;;;;;24.07;15.40;;;17.10;47.40;14.10;101827;;;;557229;253;24127;-80
2022/03/14 10:36:06;;;;;;;23.70;15.00;;;16.10;49.00;14.10;101814;;;;556957;253;24189;-81
2022/03/14 10:38:32;;;;;;;22.73;15.97;;;15.80;49.80;13.70;101816;;;;557303;253;24105;-79
2022/03/14 10:41:00;;;;;;;21.57;14.13;;;15.50;50.10;13.60;101812;;;;557434;253;24118;-81
2022/03/14 10:43:32;;;;;;;19.97;14.93;;;14.80;51.00;13.00;101812;;;;556306;253;24179;-79
2022/03/14 10:45:57;;;;;;;30.97;15.93;;;14.70;50.80;12.60;101808;;;;557967;253;24147;-80
2022/03/14 10:48:39;;;;;;;24.50;14.47;;;14.20;52.20;12.50;101808;;;;557873;251;24109;-79
2022/03/14 10:51:11;;;;;;;19.33;14.93;;;13.90;53.20;12.40;101802;;;;562930;251;24119;-79
2022/03/14 10:53:41;;;;;;;21.53;17.13;;;13.60;54.00;12.10;101793;;;;561755;252;35492;-81
2022/03/14 10:56:09;;;;;;;25.65;17.50;;;13.20;54.70;11.70;101798;;;;562573;250;35921;-80
2022/03/14 10:58:38;;;;;;;25.33;18.37;;;12.80;55.40;11.00;101793;;;;562181;250;35455;-80
2022/03/14 11:01:07;;;;;;;25.70;13.27;;;12.10;56.40;10.30;101792;;;;558499;253;24121;-79